createdAt,value
2023-04-02T00:00:12.376Z,78.46
2023-04-02T00:03:10.279Z,78.88
2023-04-02T00:05:36.957Z,77.87
2023-04-02T00:08:10.181Z,78.11
2023-04-02T00:10:47.250Z,77.83
2023-04-02T00:13:16.655Z,77.79
2023-04-02T00:15:47.015Z,78.80
2023-04-02T00:18:16.784Z,78.86
2023-04-02T00:20:48.537Z,77.71
2023-04-02T00:23:15.520Z,78.38
2023-04-02T00:25:45.356Z,78.40
2023-04-02T00:28:18.929Z,76.48
2023-04-02T00:30:52.536Z,78.06
2023-04-02T00:33:22.753Z,78.13
2023-04-02T00:35:50.996Z,77.84
2023-04-02T00:38:35.123Z,77.05
2023-04-02T00:41:04.890Z,77.06
2023-04-02T00:43:36.504Z,77.59
2023-04-02T00:46:16.426Z,77.93
2023-04-02T00:49:09.692Z,77.82
2023-04-02T00:51:41.764Z,77.43
2023-04-02T00:54:15.751Z,77.70
2023-04-02T00:56:48.648Z,77.56
2023-04-02T00:59:31.195Z,77.60
2023-04-02T01:02:19.371Z,76.92
2023-04-02T01:04:57.621Z,76.86
2023-04-02T01:07:42.161Z,76.34
2023-04-02T01:10:23.773Z,77.22
2023-04-02T01:13:13.253Z,75.55
2023-04-02T01:15:57.492Z,76.43
2023-04-02T01:18:50.267Z,77.04
2023-04-02T01:21:43.847Z,77.22
2023-04-02T01:24:14.540Z,76.53
2023-04-02T01:26:57.983Z,76.35
2023-04-02T01:29:39.531Z,77.09
2023-04-02T01:32:11.427Z,76.79
2023-04-02T01:34:38.898Z,76.40
2023-04-02T01:37:22.954Z,77.23
2023-04-02T01:39:58.655Z,76.29
2023-04-02T01:42:51.855Z,77.01
2023-04-02T01:45:21.717Z,76.66
2023-04-02T01:47:49.303Z,77.42
2023-04-02T01:50:31.670Z,77.40
2023-04-02T01:53:06.044Z,76.53
2023-04-02T01:55:43.872Z,77.64
2023-04-02T01:58:12.648Z,77.68
2023-04-02T02:00:50.888Z,77.57
2023-04-02T02:03:19.276Z,77.54
2023-04-02T02:05:46.524Z,77.01
2023-04-02T02:08:31.436Z,77.30
2023-04-02T02:10:58.929Z,76.98
2023-04-02T02:13:25.444Z,77.18
2023-04-02T02:15:52.374Z,76.98
2023-04-02T02:18:23.488Z,77.00
2023-04-02T02:20:52.141Z,76.95
2023-04-02T02:23:19.618Z,76.49
2023-04-02T02:25:46.967Z,76.45
2023-04-02T02:28:33.063Z,76.93
2023-04-02T02:31:03.983Z,77.71
2023-04-02T02:33:37.419Z,77.49
2023-04-02T02:36:33.382Z,77.34
2023-04-02T02:39:13.149Z,76.86
2023-04-02T02:41:49.927Z,76.62
2023-04-02T02:44:22.659Z,77.27
2023-04-02T02:47:04.453Z,77.54
2023-04-02T02:49:36.021Z,76.99
2023-04-02T02:52:10.281Z,76.71
2023-04-02T02:54:51.434Z,77.22
2023-04-02T02:57:24.906Z,77.31
2023-04-02T02:59:54.357Z,77.11
2023-04-02T03:02:21.354Z,77.39
2023-04-02T03:04:53.393Z,77.81
2023-04-02T03:07:25.507Z,77.74
2023-04-02T03:10:12.448Z,77.54
2023-04-02T03:12:52.799Z,77.75
2023-04-02T03:15:43.071Z,77.03
2023-04-02T03:18:43.366Z,76.96
2023-04-02T03:21:33.053Z,77.33
2023-04-02T03:24:04.992Z,77.17
2023-04-02T03:26:36.762Z,76.64
2023-04-02T03:29:03.747Z,77.41
2023-04-02T03:31:36.528Z,76.81
2023-04-02T03:34:28.754Z,76.98
2023-04-02T03:37:05.261Z,76.85
2023-04-02T03:39:38.020Z,76.89
2023-04-02T03:42:17.137Z,76.40
2023-04-02T03:44:51.322Z,76.65
2023-04-02T03:47:29.457Z,76.66
2023-04-02T03:50:01.233Z,76.59
2023-04-02T03:52:29.735Z,75.81
2023-04-02T03:55:01.979Z,76.29
2023-04-02T03:58:06.911Z,75.69
2023-04-02T04:00:47.093Z,76.71
2023-04-02T04:03:18.643Z,76.42
2023-04-02T04:06:04.942Z,75.95
2023-04-02T04:08:42.327Z,76.92
2023-04-02T04:11:14.019Z,75.63
2023-04-02T04:13:57.157Z,75.62
2023-04-02T04:16:32.674Z,76.35
2023-04-02T04:19:04.985Z,76.52
2023-04-02T04:21:39.370Z,75.32
2023-04-02T04:24:25.458Z,75.36
2023-04-02T04:27:04.472Z,76.42
2023-04-02T04:29:45.542Z,75.49
2023-04-02T04:32:27.281Z,74.50
2023-04-02T04:35:26.030Z,74.83
2023-04-02T04:38:00.151Z,73.48
2023-04-02T04:40:34.366Z,73.21
2023-04-02T04:43:12.204Z,73.25
2023-04-02T04:45:54.271Z,73.13
2023-04-02T04:48:28.668Z,71.97
2023-04-02T04:51:04.024Z,72.51
2023-04-02T04:53:31.611Z,73.33
2023-04-02T04:56:18.193Z,73.78
2023-04-02T04:59:13.770Z,72.41
2023-04-02T05:01:45.943Z,71.32
2023-04-02T05:04:16.292Z,71.98
2023-04-02T05:06:55.955Z,71.79
2023-04-02T05:09:45.823Z,72.38
2023-04-02T05:12:26.464Z,71.73
2023-04-02T05:14:59.181Z,72.41
2023-04-02T05:17:33.431Z,71.88
2023-04-02T05:20:25.945Z,71.66
2023-04-02T05:23:04.582Z,70.97
2023-04-02T05:25:33.030Z,71.09
2023-04-02T05:28:18.288Z,72.23
2023-04-02T05:30:56.398Z,71.53
2023-04-02T05:33:27.934Z,72.33
2023-04-02T05:36:22.386Z,72.36
2023-04-02T05:38:54.578Z,72.12
2023-04-02T05:41:38.284Z,71.81
2023-04-02T05:44:14.782Z,71.81
2023-04-02T05:46:49.755Z,70.52
2023-04-02T05:49:39.180Z,70.04
2023-04-02T05:52:16.124Z,71.19
2023-04-02T05:54:55.029Z,71.89
2023-04-02T05:57:42.741Z,70.21
2023-04-02T06:00:20.191Z,70.95
2023-04-02T06:02:56.513Z,71.16
2023-04-02T06:05:28.779Z,70.99
2023-04-02T06:08:05.129Z,69.82
2023-04-02T06:10:43.490Z,71.17
2023-04-02T06:13:17.643Z,69.85
2023-04-02T06:15:47.643Z,71.17
2023-04-02T06:18:23.264Z,71.34
2023-04-02T06:20:51.787Z,71.25
2023-04-02T06:23:25.177Z,71.45
2023-04-02T06:26:04.642Z,70.68
2023-04-02T06:28:55.570Z,71.31
2023-04-02T06:31:28.803Z,70.63
2023-04-02T06:33:56.590Z,70.96
2023-04-02T06:36:27.633Z,71.46
2023-04-02T06:39:03.023Z,71.73
2023-04-02T06:41:30.514Z,71.36
2023-04-02T06:44:22.717Z,72.07
2023-04-02T06:47:43.120Z,72.31
2023-04-02T06:50:23.322Z,72.31
2023-04-02T06:52:54.950Z,71.33
2023-04-02T06:55:49.651Z,71.17
2023-04-02T06:58:21.436Z,72.03
2023-04-02T07:00:51.126Z,72.45
2023-04-02T07:03:43.838Z,69.78
2023-04-02T07:06:21.774Z,70.65
2023-04-02T07:08:50.555Z,70.79
2023-04-02T07:11:21.832Z,71.24
2023-04-02T07:13:50.849Z,71.22
2023-04-02T07:16:21.404Z,72.45
2023-04-02T07:18:49.165Z,70.74
2023-04-02T07:21:15.854Z,70.80
2023-04-02T07:23:42.675Z,71.39
2023-04-02T07:26:14.112Z,71.15
2023-04-02T07:28:40.803Z,70.09
2023-04-02T07:31:25.725Z,70.47
2023-04-02T07:33:58.040Z,70.48
2023-04-02T07:36:25.677Z,71.41
2023-04-02T07:38:52.645Z,70.35
2023-04-02T07:41:19.625Z,69.20
2023-04-02T07:43:46.592Z,69.76
2023-04-02T07:46:16.517Z,69.58
2023-04-02T07:48:44.119Z,68.56
2023-04-02T07:51:21.635Z,68.82
2023-04-02T07:53:54.783Z,68.72
2023-04-02T07:56:23.335Z,68.49
2023-04-02T07:58:49.758Z,68.80
2023-04-02T08:01:26.108Z,68.58
2023-04-02T08:03:54.748Z,68.46
2023-04-02T08:06:22.386Z,68.55
2023-04-02T08:08:49.535Z,67.69
2023-04-02T08:11:16.390Z,67.14
2023-04-02T08:13:43.143Z,68.36
2023-04-02T08:16:09.966Z,67.96
2023-04-02T08:18:37.203Z,67.54
2023-04-02T08:21:08.571Z,67.29
2023-04-02T08:23:35.840Z,66.95
2023-04-02T08:26:03.351Z,66.99
2023-04-02T08:28:30.096Z,67.15
2023-04-02T08:30:56.600Z,67.06
2023-04-02T08:33:23.091Z,67.53
2023-04-02T08:35:50.419Z,67.67
2023-04-02T08:38:20.131Z,67.63
2023-04-02T08:40:52.335Z,67.93
2023-04-02T08:43:28.820Z,66.65
2023-04-02T08:45:58.288Z,66.30
2023-04-02T08:48:24.715Z,65.21
2023-04-02T08:50:52.062Z,64.42
2023-04-02T08:53:27.288Z,64.31
2023-04-02T08:56:05.789Z,63.86
2023-04-02T08:58:43.792Z,63.04
2023-04-02T09:01:21.518Z,63.07
2023-04-02T09:03:51.206Z,63.57
2023-04-02T09:06:19.872Z,64.81
2023-04-02T09:08:48.594Z,64.72
2023-04-02T09:11:21.535Z,62.95
2023-04-02T09:13:54.726Z,61.95
2023-04-02T09:16:36.658Z,61.17
2023-04-02T09:19:16.495Z,61.85
2023-04-02T09:21:48.517Z,60.40
2023-04-02T09:24:14.908Z,60.62
2023-04-02T09:26:41.579Z,60.07
2023-04-02T09:29:07.916Z,59.75
2023-04-02T09:31:39.326Z,60.64
2023-04-02T09:34:28.509Z,60.30
2023-04-02T09:36:55.888Z,61.42
2023-04-02T09:39:26.237Z,60.44
2023-04-02T09:42:05.032Z,60.01
2023-04-02T09:44:32.398Z,59.77
2023-04-02T09:47:22.930Z,59.82
2023-04-02T09:49:49.296Z,59.79
2023-04-02T09:52:29.505Z,59.91
2023-04-02T09:55:22.541Z,58.07
2023-04-02T09:57:51.856Z,56.71
2023-04-02T10:00:41.663Z,58.65
2023-04-02T10:03:14.034Z,58.31
2023-04-02T10:05:41.729Z,57.29
2023-04-02T10:08:20.773Z,58.09
2023-04-02T10:10:54.181Z,58.77
2023-04-02T10:13:32.348Z,57.66
2023-04-02T10:16:05.715Z,57.48
2023-04-02T10:18:47.888Z,56.83
2023-04-02T10:21:19.436Z,56.89
2023-04-02T10:23:46.105Z,56.03
2023-04-02T10:26:37.994Z,58.32
2023-04-02T10:29:38.850Z,56.44
2023-04-02T10:32:12.833Z,57.41
2023-04-02T10:34:58.644Z,58.02
2023-04-02T10:37:47.119Z,57.39
2023-04-02T10:40:59.266Z,56.75
2023-04-02T10:43:53.635Z,57.50
2023-04-02T10:46:31.962Z,56.12
2023-04-02T10:49:22.650Z,55.56
2023-04-02T10:52:00.580Z,55.70
2023-04-02T10:54:39.202Z,55.98
2023-04-02T10:57:22.288Z,55.91
2023-04-02T11:00:06.697Z,55.74
2023-04-02T11:02:48.847Z,56.06
2023-04-02T11:05:40.151Z,54.89
2023-04-02T11:08:17.863Z,55.99
2023-04-02T11:10:56.508Z,55.55
2023-04-02T11:13:31.422Z,55.97
2023-04-02T11:15:57.971Z,55.49
2023-04-02T11:18:34.211Z,55.32
2023-04-02T11:21:05.693Z,55.25
2023-04-02T11:23:35.494Z,55.51
2023-04-02T11:26:29.893Z,55.71
2023-04-02T11:29:28.868Z,53.68
2023-04-02T11:32:23.914Z,55.00
2023-04-02T11:35:03.074Z,54.68
2023-04-02T11:37:44.556Z,54.35
2023-04-02T11:40:10.923Z,53.70
2023-04-02T11:42:48.236Z,55.33
2023-04-02T11:45:23.901Z,55.32
2023-04-02T11:47:59.605Z,56.02
2023-04-02T11:50:31.681Z,55.60
2023-04-02T11:53:03.378Z,55.15
2023-04-02T11:55:30.623Z,52.86
2023-04-02T11:58:20.450Z,53.58
2023-04-02T12:01:05.354Z,54.57
2023-04-02T12:04:09.379Z,54.31
2023-04-02T12:06:42.230Z,54.99
2023-04-02T12:09:27.844Z,53.88
2023-04-02T12:12:01.535Z,53.92
2023-04-02T12:14:48.469Z,53.24
2023-04-02T12:17:27.749Z,53.49
2023-04-02T12:20:20.346Z,54.38
2023-04-02T12:22:50.899Z,53.67
2023-04-02T12:25:23.339Z,54.44
2023-04-02T12:28:23.691Z,54.04
2023-04-02T12:31:02.053Z,52.03
2023-04-02T12:33:33.616Z,53.67
2023-04-02T12:36:01.708Z,52.83
2023-04-02T12:38:49.903Z,51.91
2023-04-02T12:41:24.429Z,52.34
2023-04-02T12:44:15.364Z,50.76
2023-04-02T12:46:42.768Z,52.50
2023-04-02T12:49:41.562Z,50.35
2023-04-02T12:52:11.766Z,51.25
2023-04-02T12:54:46.083Z,51.73
2023-04-02T12:57:28.821Z,49.10
2023-04-02T13:00:22.592Z,51.29
2023-04-02T13:03:01.210Z,51.05
2023-04-02T13:05:35.246Z,52.14
2023-04-02T13:08:02.796Z,51.06
2023-04-02T13:10:29.599Z,50.38
2023-04-02T13:13:00.776Z,50.73
2023-04-02T13:15:33.622Z,50.90
2023-04-02T13:18:06.369Z,49.90
2023-04-02T13:20:32.858Z,50.56
2023-04-02T13:23:01.276Z,51.55
2023-04-02T13:25:35.231Z,50.85
2023-04-02T13:28:01.904Z,51.55
2023-04-02T13:30:29.050Z,51.92
2023-04-02T13:32:56.356Z,51.15
2023-04-02T13:35:22.821Z,49.53
2023-04-02T13:37:49.327Z,49.71
2023-04-02T13:40:17.705Z,50.60
2023-04-02T13:42:45.019Z,51.58
2023-04-02T13:45:41.843Z,50.45
2023-04-02T13:48:15.881Z,49.78
2023-04-02T13:50:42.586Z,50.03
2023-04-02T13:53:19.467Z,48.88
2023-04-02T13:55:46.115Z,49.43
2023-04-02T13:58:12.570Z,51.37
2023-04-02T14:00:39.110Z,51.54
2023-04-02T14:03:10.958Z,50.55
2023-04-02T14:06:08.449Z,51.62
2023-04-02T14:08:57.831Z,51.79
2023-04-02T14:11:36.470Z,52.84
2023-04-02T14:14:31.784Z,49.71
2023-04-02T14:17:20.600Z,51.72
2023-04-02T14:20:20.202Z,51.74
2023-04-02T14:22:59.823Z,50.04
2023-04-02T14:25:38.427Z,50.95
2023-04-02T14:28:04.855Z,52.26
2023-04-02T14:31:12.700Z,52.09
2023-04-02T14:34:07.129Z,50.92
2023-04-02T14:37:03.219Z,52.33
2023-04-02T14:39:58.614Z,52.36
2023-04-02T14:42:27.642Z,52.50
2023-04-02T14:45:05.427Z,51.00
2023-04-02T14:47:54.556Z,51.60
2023-04-02T14:50:27.973Z,51.75
2023-04-02T14:53:00.383Z,52.45
2023-04-02T14:55:42.315Z,52.55
2023-04-02T14:58:16.812Z,51.95
2023-04-02T15:00:51.513Z,50.70
2023-04-02T15:03:22.972Z,52.60
2023-04-02T15:05:59.795Z,51.26
2023-04-02T15:08:29.637Z,51.10
2023-04-02T15:11:08.668Z,51.14
2023-04-02T15:13:45.287Z,51.48
2023-04-02T15:16:19.135Z,50.76
2023-04-02T15:18:46.306Z,51.31
2023-04-02T15:21:18.869Z,52.05
2023-04-02T15:24:12.788Z,51.91
2023-04-02T15:27:24.012Z,52.28
2023-04-02T15:30:12.936Z,51.71
2023-04-02T15:32:42.452Z,51.61
2023-04-02T15:35:24.130Z,51.48
2023-04-02T15:38:18.275Z,51.72
2023-04-02T15:40:49.369Z,50.84
2023-04-02T15:43:21.211Z,50.99
2023-04-02T15:46:06.189Z,52.00
2023-04-02T15:49:15.317Z,52.17
2023-04-02T15:52:06.267Z,52.51
2023-04-02T15:55:04.553Z,51.50
2023-04-02T15:57:54.572Z,51.06
2023-04-02T16:00:38.437Z,50.54
2023-04-02T16:03:36.355Z,50.69
2023-04-02T16:06:16.831Z,51.41
2023-04-02T16:09:03.312Z,50.46
2023-04-02T16:11:30.324Z,50.03
2023-04-02T16:14:15.741Z,51.47
2023-04-02T16:16:42.756Z,52.38
2023-04-02T16:19:32.261Z,52.45
2023-04-02T16:22:06.185Z,53.11
2023-04-02T16:24:32.738Z,53.25
2023-04-02T16:27:23.548Z,52.91
2023-04-02T16:29:58.278Z,52.45
2023-04-02T16:32:43.288Z,51.31
2023-04-02T16:35:41.926Z,50.88
2023-04-02T16:38:40.126Z,51.55
2023-04-02T16:41:19.053Z,52.31
2023-04-02T16:44:19.445Z,53.52
2023-04-02T16:46:51.972Z,53.63
2023-04-02T16:49:28.642Z,55.33
2023-04-02T16:52:19.169Z,55.16
2023-04-02T16:55:00.867Z,54.07
2023-04-02T16:58:01.930Z,54.86
2023-04-02T17:01:00.862Z,54.70
2023-04-02T17:03:47.156Z,54.82
2023-04-02T17:06:19.680Z,54.89
2023-04-02T17:09:03.423Z,54.74
2023-04-02T17:11:40.673Z,54.44
2023-04-02T17:14:34.673Z,54.43
2023-04-02T17:17:03.549Z,54.43
2023-04-02T17:19:31.457Z,54.88
2023-04-02T17:22:02.116Z,53.43
2023-04-02T17:24:35.592Z,54.51
2023-04-02T17:27:28.615Z,54.41
2023-04-02T17:30:03.161Z,53.97
2023-04-02T17:32:33.105Z,54.04
2023-04-02T17:35:17.032Z,54.29
2023-04-02T17:37:52.398Z,55.01
2023-04-02T17:40:29.266Z,54.12
2023-04-02T17:43:13.718Z,54.91
2023-04-02T17:45:52.194Z,54.43
2023-04-02T17:48:37.980Z,54.93
2023-04-02T17:51:20.015Z,54.45
2023-04-02T17:54:01.823Z,54.10
2023-04-02T17:56:54.297Z,53.10
2023-04-02T17:59:44.664Z,52.95
2023-04-02T18:02:38.109Z,52.54
2023-04-02T18:05:27.474Z,52.16
2023-04-02T18:08:35.777Z,52.38
2023-04-02T18:11:22.130Z,52.14
2023-04-02T18:13:58.692Z,52.31
2023-04-02T18:16:38.165Z,52.61
2023-04-02T18:19:16.631Z,53.95
2023-04-02T18:21:57.891Z,55.55
2023-04-02T18:25:03.583Z,57.33
2023-04-02T18:27:35.901Z,57.11
2023-04-02T18:30:19.171Z,57.05
2023-04-02T18:33:06.975Z,57.04
2023-04-02T18:35:39.279Z,57.85
2023-04-02T18:38:21.049Z,57.76
2023-04-02T18:41:02.942Z,57.98
2023-04-02T18:43:36.074Z,57.34
2023-04-02T18:46:22.173Z,57.40
2023-04-02T18:48:59.993Z,56.89
2023-04-02T18:51:32.105Z,56.50
2023-04-02T18:54:37.211Z,57.16
2023-04-02T18:57:13.115Z,56.70
2023-04-02T18:59:46.434Z,56.84
2023-04-02T19:02:38.482Z,56.02
2023-04-02T19:05:20.429Z,56.53
2023-04-02T19:07:50.597Z,56.77
2023-04-02T19:10:28.763Z,56.25
2023-04-02T19:12:55.394Z,56.42
2023-04-02T19:15:31.381Z,56.76
2023-04-02T19:18:14.843Z,57.35
2023-04-02T19:20:50.329Z,56.59
2023-04-02T19:23:32.269Z,56.06
2023-04-02T19:26:06.906Z,57.13
2023-04-02T19:28:42.650Z,56.83
2023-04-02T19:31:34.596Z,59.70
2023-04-02T19:34:25.312Z,61.45
2023-04-02T19:37:03.113Z,61.92
2023-04-02T19:39:35.770Z,61.84
2023-04-02T19:42:13.784Z,62.38
2023-04-02T19:44:44.696Z,62.48
2023-04-02T19:47:11.546Z,62.76
2023-04-02T19:49:38.009Z,62.68
2023-04-02T19:52:04.664Z,62.22
2023-04-02T19:54:31.153Z,62.24
2023-04-02T19:56:57.894Z,61.05
2023-04-02T19:59:24.307Z,60.87
2023-04-02T20:01:50.767Z,60.32
2023-04-02T20:04:17.213Z,59.74
2023-04-02T20:06:43.682Z,59.24
2023-04-02T20:09:10.272Z,58.19
2023-04-02T20:11:37.940Z,57.77
2023-04-02T20:14:05.306Z,58.06
2023-04-02T20:16:32.841Z,57.98
2023-04-02T20:18:59.382Z,58.59
2023-04-02T20:21:26.775Z,57.46
2023-04-02T20:23:56.024Z,56.88
2023-04-02T20:26:23.202Z,57.32
2023-04-02T20:28:49.712Z,57.83
2023-04-02T20:31:17.962Z,57.84
2023-04-02T20:33:45.259Z,57.96
2023-04-02T20:36:16.767Z,57.63
2023-04-02T20:38:43.489Z,58.90
2023-04-02T20:41:10.292Z,57.25
2023-04-02T20:43:40.219Z,57.29
2023-04-02T20:46:09.467Z,58.02
2023-04-02T20:48:37.534Z,57.83
2023-04-02T20:51:05.977Z,57.58
2023-04-02T20:53:34.515Z,58.12
2023-04-02T20:56:15.352Z,57.45
2023-04-02T20:58:43.049Z,57.55
2023-04-02T21:01:12.902Z,58.20
2023-04-02T21:03:40.037Z,58.16
2023-04-02T21:06:12.779Z,57.78
2023-04-02T21:08:39.203Z,57.98
2023-04-02T21:11:05.825Z,58.50
2023-04-02T21:13:35.273Z,57.92
2023-04-02T21:16:03.280Z,56.57
2023-04-02T21:18:29.736Z,56.46
2023-04-02T21:21:00.879Z,56.91
2023-04-02T21:23:27.497Z,56.49
2023-04-02T21:26:15.736Z,55.23
2023-04-02T21:28:43.538Z,56.32
2023-04-02T21:31:19.036Z,56.29
2023-04-02T21:33:48.441Z,55.52
2023-04-02T21:36:18.459Z,56.03
2023-04-02T21:38:47.591Z,55.16
2023-04-02T21:41:20.004Z,54.91
2023-04-02T21:43:48.225Z,54.33
2023-04-02T21:46:16.970Z,54.80
2023-04-02T21:48:43.550Z,54.79
2023-04-02T21:51:15.911Z,54.00
2023-04-02T21:53:43.390Z,55.38
2023-04-02T21:56:13.894Z,55.04
2023-04-02T21:58:40.448Z,55.58
2023-04-02T22:01:09.077Z,55.90
2023-04-02T22:03:40.693Z,55.83
2023-04-02T22:06:12.687Z,54.64
2023-04-02T22:08:40.901Z,54.12
2023-04-02T22:11:16.331Z,53.52
2023-04-02T22:13:44.277Z,53.77
2023-04-02T22:16:19.279Z,53.69
2023-04-02T22:18:46.229Z,53.99
2023-04-02T22:21:13.502Z,54.29
2023-04-02T22:23:41.080Z,54.01
2023-04-02T22:26:09.710Z,54.59
2023-04-02T22:28:36.670Z,54.00
2023-04-02T22:31:06.517Z,53.46
2023-04-02T22:33:34.209Z,54.58
2023-04-02T22:36:01.058Z,55.25
2023-04-02T22:38:28.381Z,54.64
2023-04-02T22:41:28.367Z,54.20
2023-04-02T22:43:56.340Z,54.27
2023-04-02T22:46:23.793Z,55.24
2023-04-02T22:48:50.382Z,55.29
2023-04-02T22:51:19.816Z,54.35
2023-04-02T22:53:46.346Z,54.17
2023-04-02T22:56:15.384Z,55.14
2023-04-02T22:58:42.246Z,54.92
2023-04-02T23:01:14.637Z,55.33
2023-04-02T23:03:41.501Z,55.42
2023-04-02T23:06:11.562Z,55.42
2023-04-02T23:08:39.202Z,55.46
2023-04-02T23:11:08.966Z,55.63
2023-04-02T23:13:36.762Z,55.13
2023-04-02T23:16:05.643Z,55.35
2023-04-02T23:18:33.203Z,54.06
2023-04-02T23:20:59.767Z,55.76
2023-04-02T23:23:26.516Z,55.61
2023-04-02T23:26:23.428Z,55.81
2023-04-02T23:28:50.467Z,55.93
2023-04-02T23:31:20.839Z,56.29
2023-04-02T23:33:47.620Z,56.29
2023-04-02T23:36:19.441Z,56.76
2023-04-02T23:38:45.970Z,56.20
2023-04-02T23:41:16.834Z,55.68
2023-04-02T23:43:43.855Z,56.44
2023-04-02T23:46:10.631Z,55.95
2023-04-02T23:48:37.265Z,56.13
2023-04-02T23:51:04.161Z,56.56
2023-04-02T23:53:30.713Z,55.86
2023-04-02T23:55:57.396Z,56.43
2023-04-02T23:58:23.927Z,57.21
